createdAt,value
2022-08-09T00:02:01.104Z,18.80
2022-08-09T00:04:34.738Z,18.77
2022-08-09T00:07:10.434Z,18.76
2022-08-09T00:09:42.745Z,18.75
2022-08-09T00:12:22.651Z,18.73
2022-08-09T00:14:57.548Z,18.71
2022-08-09T00:18:06.179Z,18.69
2022-08-09T00:20:38.179Z,18.68
2022-08-09T00:23:55.082Z,18.66
2022-08-09T00:26:32.246Z,18.64
2022-08-09T00:30:16.179Z,18.61
2022-08-09T00:32:06.743Z,18.59
2022-08-09T00:34:39.610Z,18.57
2022-08-09T00:37:19.828Z,18.55
2022-08-09T00:44:19.182Z,18.46
2022-08-09T00:46:56.040Z,18.44
2022-08-09T00:49:31.078Z,18.42
2022-08-09T00:52:32.778Z,18.41
2022-08-09T00:56:04.808Z,18.37
2022-08-09T00:59:41.253Z,18.33
2022-08-09T01:06:25.497Z,18.26
2022-08-09T01:09:37.392Z,18.25
2022-08-09T01:12:45.242Z,18.26
2022-08-09T01:15:24.108Z,18.23
2022-08-09T01:18:06.629Z,18.24
2022-08-09T01:21:10.045Z,18.24
2022-08-09T01:24:04.960Z,18.23
2022-08-09T01:27:00.678Z,18.22
2022-08-09T01:29:41.003Z,18.24
2022-08-09T01:36:49.702Z,18.29
2022-08-09T01:39:23.169Z,18.31
2022-08-09T01:42:03.016Z,18.33
2022-08-09T01:47:52.642Z,18.39
2022-08-09T01:50:28.971Z,18.44
2022-08-09T01:53:19.794Z,18.49
2022-08-09T01:55:55.207Z,18.52
2022-08-09T02:02:50.782Z,18.59
2022-08-09T02:05:38.096Z,18.64
2022-08-09T02:08:35.299Z,18.66
2022-08-09T02:11:22.420Z,18.69
2022-08-09T02:14:07.044Z,18.69
2022-08-09T02:16:59.154Z,18.70
2022-08-09T02:19:39.167Z,18.70
2022-08-09T02:23:13.604Z,18.71
2022-08-09T02:26:03.464Z,18.70
2022-08-09T02:28:43.329Z,18.70
2022-08-09T02:31:58.955Z,18.70
2022-08-09T02:34:40.422Z,18.69
2022-08-09T02:37:15.619Z,18.68
2022-08-09T03:05:02.341Z,18.49
2022-08-09T03:09:56.733Z,18.49
2022-08-09T03:24:04.738Z,18.63
2022-08-09T03:26:40.399Z,18.67
2022-08-09T03:29:22.660Z,18.69
2022-08-09T03:32:00.516Z,18.71
2022-08-09T03:34:36.997Z,18.73
2022-08-09T03:37:59.874Z,18.75
2022-08-09T03:41:19.776Z,18.78
2022-08-09T04:04:02.079Z,19.37
2022-08-09T04:06:39.882Z,19.48
2022-08-09T04:09:44.330Z,19.56
2022-08-09T04:34:00.658Z,19.98
2022-08-09T04:37:57.121Z,20.12
2022-08-09T05:06:11.298Z,20.80
2022-08-09T05:09:16.084Z,20.85
2022-08-09T05:11:52.748Z,20.92
2022-08-09T05:14:33.377Z,21.01
2022-08-09T05:17:15.419Z,21.05
2022-08-09T05:20:01.246Z,21.10
2022-08-09T05:22:36.030Z,21.18
2022-08-09T05:25:45.762Z,21.31
2022-08-09T05:28:27.151Z,21.42
2022-08-09T05:31:09.438Z,21.50
2022-08-09T05:33:45.351Z,21.59
2022-08-09T05:36:22.802Z,21.64
2022-08-09T05:39:05.096Z,21.73
2022-08-09T05:41:46.702Z,21.89
2022-08-09T05:47:51.576Z,22.43
2022-08-09T05:50:50.943Z,22.79
2022-08-09T05:54:13.945Z,23.18
2022-08-09T05:57:12.667Z,23.58
2022-08-09T06:00:16.108Z,23.98
2022-08-09T06:02:47.855Z,24.39
2022-08-09T06:05:17.690Z,24.69
2022-08-09T06:07:52.704Z,24.90
2022-08-09T06:10:43.414Z,25.05
2022-08-09T06:13:22.374Z,25.20
2022-08-09T06:15:55.068Z,25.33
2022-08-09T06:18:35.146Z,25.41
2022-08-09T06:21:10.310Z,25.44
2022-08-09T06:24:03.511Z,25.42
2022-08-09T06:26:43.613Z,25.40
2022-08-09T06:29:16.279Z,25.39
2022-08-09T06:32:08.414Z,25.43
2022-08-09T06:34:49.031Z,25.51
2022-08-09T06:37:28.970Z,25.55
2022-08-09T06:40:16.335Z,25.71
2022-08-09T06:43:14.831Z,26.20
2022-08-09T06:46:07.312Z,26.77
2022-08-09T06:48:45.683Z,27.53
2022-08-09T06:54:24.516Z,28.96
2022-08-09T06:57:00.336Z,29.62
2022-08-09T07:00:49.648Z,30.05
2022-08-09T07:02:41.550Z,30.33
2022-08-09T07:05:18.396Z,30.29
2022-08-09T07:08:13.800Z,30.19
2022-08-09T07:11:25.796Z,30.38
2022-08-09T07:14:50.858Z,31.20
2022-08-09T07:17:39.525Z,31.82
2022-08-09T07:20:19.488Z,32.39
2022-08-09T07:22:54.797Z,32.88
2022-08-09T07:25:43.523Z,33.31
2022-08-09T07:28:28.090Z,33.75
2022-08-09T07:31:45.420Z,34.09
2022-08-09T07:34:30.037Z,34.47
2022-08-09T07:37:15.626Z,34.62
2022-08-09T07:39:55.963Z,35.07
2022-08-09T07:42:32.480Z,35.36
2022-08-09T07:45:29.220Z,35.72
2022-08-09T07:48:25.288Z,36.07
2022-08-09T07:51:03.042Z,36.33
2022-08-09T07:54:06.976Z,36.46
2022-08-09T07:56:48.668Z,36.35
2022-08-09T08:00:03.424Z,36.49
2022-08-09T08:02:49.000Z,36.56
2022-08-09T08:05:23.769Z,36.54
2022-08-09T08:08:43.564Z,36.66
2022-08-09T08:12:24.167Z,36.77
2022-08-09T08:14:21.247Z,37.00
2022-08-09T08:17:24.901Z,37.27
2022-08-09T08:20:50.150Z,37.58
2022-08-09T08:24:11.797Z,37.71
2022-08-09T08:30:16.926Z,37.93
2022-08-09T08:36:37.882Z,38.66
2022-08-09T08:39:49.443Z,38.94
2022-08-09T08:42:36.757Z,39.09
2022-08-09T08:45:13.261Z,39.20
2022-08-09T09:00:27.811Z,39.51
2022-08-09T09:16:03.075Z,40.15
2022-08-09T09:27:08.546Z,40.71
2022-08-09T09:51:38.374Z,40.82
2022-08-09T09:58:58.450Z,41.09
2022-08-09T10:09:57.998Z,40.89
2022-08-09T10:12:51.918Z,40.86
2022-08-09T10:16:56.902Z,40.88
2022-08-09T10:19:45.937Z,40.91
2022-08-09T10:22:15.782Z,40.86
2022-08-09T10:25:11.763Z,40.76
2022-08-09T10:34:51.052Z,40.77
2022-08-09T10:37:24.339Z,40.49
2022-08-09T10:40:41.184Z,40.31
2022-08-09T10:44:26.693Z,40.28
2022-08-09T10:47:20.365Z,40.19
2022-08-09T11:36:47.995Z,31.76
2022-08-09T11:40:48.608Z,31.31
2022-08-09T11:47:50.210Z,30.98
2022-08-09T11:50:56.996Z,30.94
2022-08-09T11:54:33.210Z,30.96
2022-08-09T11:58:00.734Z,30.94
2022-08-09T12:02:18.147Z,30.92
2022-08-09T12:08:27.393Z,30.72
2022-08-09T12:11:02.934Z,30.70
2022-08-09T12:14:09.251Z,30.71
2022-08-09T12:16:47.546Z,30.81
2022-08-09T12:19:32.405Z,31.15
2022-08-09T12:29:11.082Z,32.33
2022-08-09T12:34:01.324Z,33.34
2022-08-09T12:37:23.804Z,33.69
2022-08-09T12:40:15.657Z,34.05
2022-08-09T12:44:06.985Z,34.35
2022-08-09T13:05:20.839Z,35.76
2022-08-09T13:47:58.905Z,31.25
2022-08-09T13:50:50.327Z,31.04
2022-08-09T13:53:54.146Z,30.92
2022-08-09T13:56:37.099Z,30.84
2022-08-09T13:59:44.355Z,30.89
2022-08-09T14:03:16.798Z,31.06
2022-08-09T14:09:34.723Z,31.46
2022-08-09T14:16:10.221Z,31.66
2022-08-09T14:18:49.503Z,31.74
2022-08-09T14:21:57.243Z,31.83
2022-08-09T14:24:33.868Z,31.74
2022-08-09T14:38:53.881Z,31.88
2022-08-09T14:41:39.627Z,31.86
2022-08-09T14:53:15.813Z,31.33
2022-08-09T15:04:23.941Z,31.14
2022-08-09T15:46:28.222Z,30.39
2022-08-09T15:50:03.983Z,30.24
2022-08-09T16:10:05.187Z,29.13
2022-08-09T16:14:04.082Z,28.86
2022-08-09T16:16:26.235Z,28.54
2022-08-09T16:22:51.288Z,28.03
2022-08-09T16:28:53.746Z,27.58
2022-08-09T16:31:37.961Z,27.43
2022-08-09T16:34:23.716Z,27.30
2022-08-09T16:37:53.735Z,27.20
2022-08-09T16:40:44.586Z,27.05
2022-08-09T16:51:19.024Z,26.58
2022-08-09T17:10:37.735Z,25.81
2022-08-09T17:43:34.426Z,24.95
2022-08-09T17:46:18.237Z,24.85
2022-08-09T17:49:21.940Z,24.77
2022-08-09T17:52:22.057Z,24.70
2022-08-09T17:55:03.247Z,24.63
2022-08-09T18:01:09.221Z,24.51
2022-08-09T18:03:48.886Z,24.44
2022-08-09T18:06:28.834Z,24.37
2022-08-09T18:09:07.402Z,24.30
2022-08-09T18:12:15.515Z,24.23
2022-08-09T18:14:54.797Z,24.18
2022-08-09T18:18:08.139Z,24.11
2022-08-09T18:24:14.126Z,23.96
2022-08-09T18:26:48.188Z,23.92
2022-08-09T18:30:41.256Z,23.85
2022-08-09T18:32:27.955Z,23.78
2022-08-09T18:35:04.011Z,23.71
2022-08-09T18:41:18.294Z,23.57
2022-08-09T18:44:46.826Z,23.50
2022-08-09T18:47:27.731Z,23.44
2022-08-09T18:50:12.341Z,23.39
2022-08-09T18:52:56.423Z,23.31
2022-08-09T18:55:56.538Z,23.24
2022-08-09T18:58:32.441Z,23.18
2022-08-09T19:01:09.243Z,23.12
2022-08-09T19:04:01.256Z,23.05
2022-08-09T19:06:50.576Z,23.01
2022-08-09T19:10:12.841Z,22.93
2022-08-09T19:12:25.042Z,22.84
2022-08-09T19:15:34.447Z,22.78
2022-08-09T19:18:17.265Z,22.71
2022-08-09T19:21:09.563Z,22.65
2022-08-09T19:24:33.161Z,22.61
2022-08-09T19:26:51.523Z,22.55
2022-08-09T19:29:38.112Z,22.51
2022-08-09T19:32:40.102Z,22.46
2022-08-09T19:35:16.631Z,22.43
2022-08-09T19:38:05.088Z,22.39
2022-08-09T19:40:49.814Z,22.34
2022-08-09T19:46:34.951Z,22.26
2022-08-09T19:50:07.438Z,22.21
2022-08-09T19:52:52.048Z,22.15
2022-08-09T19:55:39.004Z,22.10
2022-08-09T19:59:39.393Z,22.04
2022-08-09T20:04:12.610Z,21.97
2022-08-09T20:05:46.148Z,21.92
2022-08-09T20:08:41.476Z,21.87
2022-08-09T20:11:20.559Z,21.81
2022-08-09T20:14:22.999Z,21.78
2022-08-09T20:17:02.330Z,21.75
2022-08-09T20:19:47.567Z,21.73
2022-08-09T20:22:36.289Z,21.73
2022-08-09T20:25:38.155Z,21.73
2022-08-09T20:28:38.678Z,21.74
2022-08-09T20:31:33.388Z,21.75
2022-08-09T20:34:31.045Z,21.73
2022-08-09T20:37:21.481Z,21.73
2022-08-09T20:40:18.090Z,21.73
2022-08-09T20:43:18.236Z,21.72
2022-08-09T20:46:42.212Z,21.70
2022-08-09T20:49:00.448Z,21.68
2022-08-09T20:51:40.894Z,21.66
2022-08-09T20:54:18.835Z,21.65
2022-08-09T20:56:53.963Z,21.64
2022-08-09T21:00:19.504Z,21.63
2022-08-09T21:02:36.651Z,21.62
2022-08-09T21:05:57.979Z,21.61
2022-08-09T21:08:03.654Z,21.62
2022-08-09T21:10:33.702Z,21.63
2022-08-09T21:13:07.241Z,21.64
2022-08-09T21:16:19.041Z,21.64
2022-08-09T21:19:01.730Z,21.66
2022-08-09T21:22:03.371Z,21.66
2022-08-09T21:24:59.864Z,21.67
2022-08-09T21:28:01.351Z,21.67
2022-08-09T21:30:40.188Z,21.67
2022-08-09T21:33:22.106Z,21.68
2022-08-09T21:39:22.042Z,21.66
2022-08-09T21:42:10.464Z,21.64
2022-08-09T21:45:00.571Z,21.61
2022-08-09T21:47:31.081Z,21.57
2022-08-09T21:50:36.034Z,21.51
2022-08-09T21:53:15.615Z,21.44
2022-08-09T21:55:55.114Z,21.38
2022-08-09T21:58:33.628Z,21.25
2022-08-09T22:01:11.983Z,21.14
2022-08-09T22:03:59.369Z,21.04
2022-08-09T22:06:43.057Z,20.94
2022-08-09T22:09:45.519Z,20.80
2022-08-09T22:12:52.509Z,20.63
2022-08-09T22:15:42.789Z,20.48
2022-08-09T22:18:24.110Z,20.44
2022-08-09T22:21:09.880Z,20.45
2022-08-09T22:24:02.055Z,20.45
2022-08-09T22:26:37.750Z,20.45
2022-08-09T22:29:13.351Z,20.43
2022-08-09T22:31:57.858Z,20.37
2022-08-09T22:34:31.813Z,20.33
2022-08-09T22:37:02.547Z,20.28
2022-08-09T22:39:56.135Z,20.24
2022-08-09T22:42:28.899Z,20.18
2022-08-09T22:48:18.264Z,20.13
2022-08-09T22:48:36.115Z,20.09
2022-08-09T22:51:10.669Z,20.06
2022-08-09T22:54:02.243Z,20.00
2022-08-09T22:56:50.904Z,19.95
2022-08-09T22:59:58.021Z,19.88
2022-08-09T23:02:28.165Z,19.81
2022-08-09T23:04:57.041Z,19.76
2022-08-09T23:08:23.173Z,19.70
2022-08-09T23:10:43.845Z,19.64
2022-08-09T23:13:24.934Z,19.58
2022-08-09T23:16:03.395Z,19.56
2022-08-09T23:18:39.486Z,19.54
2022-08-09T23:21:25.233Z,19.53
2022-08-09T23:24:22.823Z,19.51
2022-08-09T23:26:54.398Z,19.52
2022-08-09T23:29:30.976Z,19.52
2022-08-09T23:32:08.170Z,19.54
2022-08-09T23:34:41.373Z,19.56
2022-08-09T23:37:17.694Z,19.58
2022-08-09T23:39:58.950Z,19.59
2022-08-09T23:42:29.610Z,19.60
2022-08-09T23:45:37.776Z,19.62
2022-08-09T23:48:10.850Z,19.64
2022-08-09T23:50:47.388Z,19.64
2022-08-09T23:53:25.588Z,19.61
2022-08-09T23:56:03.908Z,19.61
2022-08-09T23:58:45.685Z,19.63
